sensor_id;sensor_type;location;lat;lon;timestamp;P1;durP1;ratioP1;P2;durP2;ratioP2
34741;SDS011;20968;42.696;23.360;2023-06-22T00:01:42;8.05;;;5.93;;
34741;SDS011;20968;42.696;23.360;2023-06-22T00:04:07;6.65;;;5.15;;
34741;SDS011;20968;42.696;23.360;2023-06-22T00:06:35;7.78;;;5.30;;
34741;SDS011;20968;42.696;23.360;2023-06-22T00:09:00;7.03;;;5.32;;
34741;SDS011;20968;42.696;23.360;2023-06-22T00:11:26;9.40;;;5.63;;
34741;SDS011;20968;42.696;23.360;2023-06-22T00:13:53;9.02;;;5.97;;
34741;SDS011;20968;42.696;23.360;2023-06-22T00:16:20;8.07;;;6.00;;
34741;SDS011;20968;42.696;23.360;2023-06-22T00:18:47;9.70;;;6.80;;
34741;SDS011;20968;42.696;23.360;2023-06-22T00:21:13;6.22;;;5.45;;
34741;SDS011;20968;42.696;23.360;2023-06-22T00:23:39;6.85;;;4.93;;
34741;SDS011;20968;42.696;23.360;2023-06-22T00:26:04;6.75;;;5.30;;
34741;SDS011;20968;42.696;23.360;2023-06-22T00:28:30;7.10;;;5.75;;
34741;SDS011;20968;42.696;23.360;2023-06-22T00:30:55;7.82;;;5.32;;
34741;SDS011;20968;42.696;23.360;2023-06-22T00:33:21;6.97;;;5.22;;
34741;SDS011;20968;42.696;23.360;2023-06-22T00:35:46;7.50;;;5.85;;
34741;SDS011;20968;42.696;23.360;2023-06-22T00:38:12;9.38;;;5.68;;
34741;SDS011;20968;42.696;23.360;2023-06-22T00:40:37;10.85;;;6.70;;
34741;SDS011;20968;42.696;23.360;2023-06-22T00:43:03;11.55;;;6.43;;
34741;SDS011;20968;42.696;23.360;2023-06-22T00:45:30;6.15;;;5.35;;
34741;SDS011;20968;42.696;23.360;2023-06-22T00:47:58;9.90;;;6.10;;
34741;SDS011;20968;42.696;23.360;2023-06-22T00:50:25;8.32;;;5.93;;
34741;SDS011;20968;42.696;23.360;2023-06-22T00:52:56;9.38;;;5.80;;
34741;SDS011;20968;42.696;23.360;2023-06-22T00:55:23;8.88;;;6.45;;
34741;SDS011;20968;42.696;23.360;2023-06-22T00:57:50;9.73;;;6.97;;
34741;SDS011;20968;42.696;23.360;2023-06-22T01:00:20;7.50;;;6.60;;
34741;SDS011;20968;42.696;23.360;2023-06-22T01:02:46;10.57;;;7.22;;
34741;SDS011;20968;42.696;23.360;2023-06-22T01:05:17;8.40;;;6.00;;
34741;SDS011;20968;42.696;23.360;2023-06-22T01:08:00;8.07;;;6.78;;
34741;SDS011;20968;42.696;23.360;2023-06-22T01:13:18;11.25;;;8.80;;
34741;SDS011;20968;42.696;23.360;2023-06-22T01:16:20;15.93;;;10.95;;
34741;SDS011;20968;42.696;23.360;2023-06-22T01:18:53;26.83;;;22.02;;
34741;SDS011;20968;42.696;23.360;2023-06-22T01:21:49;31.02;;;23.98;;
34741;SDS011;20968;42.696;23.360;2023-06-22T01:30:20;32.33;;;23.45;;
34741;SDS011;20968;42.696;23.360;2023-06-22T01:33:28;25.02;;;19.08;;
34741;SDS011;20968;42.696;23.360;2023-06-22T01:35:54;20.30;;;14.52;;
34741;SDS011;20968;42.696;23.360;2023-06-22T01:38:20;13.43;;;8.73;;
34741;SDS011;20968;42.696;23.360;2023-06-22T01:40:47;10.40;;;7.53;;
34741;SDS011;20968;42.696;23.360;2023-06-22T01:43:13;9.82;;;7.65;;
34741;SDS011;20968;42.696;23.360;2023-06-22T01:45:39;10.55;;;7.63;;
34741;SDS011;20968;42.696;23.360;2023-06-22T01:48:05;8.75;;;7.60;;
34741;SDS011;20968;42.696;23.360;2023-06-22T01:50:30;16.02;;;7.18;;
34741;SDS011;20968;42.696;23.360;2023-06-22T01:52:56;10.65;;;7.35;;
34741;SDS011;20968;42.696;23.360;2023-06-22T01:55:21;11.20;;;6.93;;
34741;SDS011;20968;42.696;23.360;2023-06-22T01:57:47;9.63;;;7.15;;
34741;SDS011;20968;42.696;23.360;2023-06-22T02:00:14;10.63;;;7.05;;
34741;SDS011;20968;42.696;23.360;2023-06-22T02:05:14;9.32;;;7.25;;
34741;SDS011;20968;42.696;23.360;2023-06-22T02:07:46;9.18;;;6.90;;
34741;SDS011;20968;42.696;23.360;2023-06-22T02:10:20;9.52;;;7.05;;
34741;SDS011;20968;42.696;23.360;2023-06-22T02:12:46;8.93;;;6.75;;
34741;SDS011;20968;42.696;23.360;2023-06-22T02:15:16;10.40;;;6.88;;
34741;SDS011;20968;42.696;23.360;2023-06-22T02:17:42;12.43;;;6.75;;
34741;SDS011;20968;42.696;23.360;2023-06-22T02:20:16;8.70;;;6.35;;
34741;SDS011;20968;42.696;23.360;2023-06-22T02:22:41;10.18;;;6.97;;
34741;SDS011;20968;42.696;23.360;2023-06-22T02:27:45;10.60;;;6.47;;
34741;SDS011;20968;42.696;23.360;2023-06-22T02:30:31;11.40;;;7.25;;
34741;SDS011;20968;42.696;23.360;2023-06-22T02:32:56;6.68;;;5.85;;
34741;SDS011;20968;42.696;23.360;2023-06-22T02:35:25;10.23;;;5.97;;
34741;SDS011;20968;42.696;23.360;2023-06-22T02:37:51;10.93;;;6.50;;
34741;SDS011;20968;42.696;23.360;2023-06-22T02:40:17;9.13;;;6.53;;
34741;SDS011;20968;42.696;23.360;2023-06-22T02:42:42;8.15;;;6.05;;
34741;SDS011;20968;42.696;23.360;2023-06-22T02:45:08;7.70;;;5.88;;
34741;SDS011;20968;42.696;23.360;2023-06-22T02:47:34;7.35;;;6.35;;
34741;SDS011;20968;42.696;23.360;2023-06-22T02:49:59;8.73;;;7.25;;
34741;SDS011;20968;42.696;23.360;2023-06-22T02:52:25;18.13;;;7.05;;
34741;SDS011;20968;42.696;23.360;2023-06-22T02:54:50;7.10;;;5.97;;
34741;SDS011;20968;42.696;23.360;2023-06-22T02:57:17;7.40;;;5.35;;
34741;SDS011;20968;42.696;23.360;2023-06-22T02:59:42;8.80;;;6.22;;
34741;SDS011;20968;42.696;23.360;2023-06-22T03:02:11;11.30;;;6.30;;
34741;SDS011;20968;42.696;23.360;2023-06-22T03:04:36;9.60;;;6.63;;
34741;SDS011;20968;42.696;23.360;2023-06-22T03:07:02;9.75;;;7.40;;
34741;SDS011;20968;42.696;23.360;2023-06-22T03:09:28;11.88;;;6.82;;
34741;SDS011;20968;42.696;23.360;2023-06-22T03:11:54;9.43;;;6.40;;
34741;SDS011;20968;42.696;23.360;2023-06-22T03:14:19;9.05;;;7.22;;
34741;SDS011;20968;42.696;23.360;2023-06-22T03:16:45;13.10;;;6.75;;
34741;SDS011;20968;42.696;23.360;2023-06-22T03:19:11;9.60;;;6.80;;
34741;SDS011;20968;42.696;23.360;2023-06-22T03:21:37;12.95;;;6.70;;
34741;SDS011;20968;42.696;23.360;2023-06-22T03:24:06;7.85;;;5.93;;
34741;SDS011;20968;42.696;23.360;2023-06-22T03:26:32;13.48;;;8.48;;
34741;SDS011;20968;42.696;23.360;2023-06-22T03:29:18;13.68;;;7.28;;
34741;SDS011;20968;42.696;23.360;2023-06-22T03:34:32;10.85;;;7.68;;
34741;SDS011;20968;42.696;23.360;2023-06-22T03:36:59;14.35;;;7.03;;
34741;SDS011;20968;42.696;23.360;2023-06-22T03:39:25;8.23;;;6.60;;
34741;SDS011;20968;42.696;23.360;2023-06-22T03:41:50;11.50;;;7.45;;
34741;SDS011;20968;42.696;23.360;2023-06-22T03:44:16;9.45;;;7.28;;
34741;SDS011;20968;42.696;23.360;2023-06-22T03:46:41;8.68;;;6.90;;
34741;SDS011;20968;42.696;23.360;2023-06-22T03:49:06;11.63;;;7.57;;
34741;SDS011;20968;42.696;23.360;2023-06-22T03:51:32;15.23;;;9.15;;
34741;SDS011;20968;42.696;23.360;2023-06-22T03:53:58;13.40;;;8.20;;
34741;SDS011;20968;42.696;23.360;2023-06-22T03:56:23;17.90;;;8.50;;
34741;SDS011;20968;42.696;23.360;2023-06-22T03:58:54;11.90;;;8.23;;
34741;SDS011;20968;42.696;23.360;2023-06-22T04:01:20;11.85;;;8.70;;
34741;SDS011;20968;42.696;23.360;2023-06-22T04:03:46;10.98;;;7.50;;
34741;SDS011;20968;42.696;23.360;2023-06-22T04:06:13;13.50;;;7.45;;
34741;SDS011;20968;42.696;23.360;2023-06-22T04:08:39;12.40;;;7.95;;
34741;SDS011;20968;42.696;23.360;2023-06-22T04:11:04;10.45;;;7.28;;
34741;SDS011;20968;42.696;23.360;2023-06-22T04:13:45;10.88;;;7.28;;
34741;SDS011;20968;42.696;23.360;2023-06-22T04:16:11;14.65;;;8.32;;
34741;SDS011;20968;42.696;23.360;2023-06-22T04:18:36;9.63;;;6.70;;
34741;SDS011;20968;42.696;23.360;2023-06-22T04:21:02;16.45;;;8.38;;
34741;SDS011;20968;42.696;23.360;2023-06-22T04:23:27;8.63;;;7.32;;
34741;SDS011;20968;42.696;23.360;2023-06-22T04:25:53;7.22;;;6.00;;
34741;SDS011;20968;42.696;23.360;2023-06-22T04:28:18;13.05;;;7.47;;
34741;SDS011;20968;42.696;23.360;2023-06-22T04:30:44;8.82;;;6.70;;
34741;SDS011;20968;42.696;23.360;2023-06-22T04:33:15;8.80;;;6.45;;
34741;SDS011;20968;42.696;23.360;2023-06-22T04:35:41;9.18;;;6.80;;
34741;SDS011;20968;42.696;23.360;2023-06-22T04:38:07;10.88;;;7.30;;
34741;SDS011;20968;42.696;23.360;2023-06-22T04:40:33;11.48;;;7.40;;
34741;SDS011;20968;42.696;23.360;2023-06-22T04:42:58;10.25;;;7.00;;
34741;SDS011;20968;42.696;23.360;2023-06-22T04:45:30;11.73;;;7.63;;
34741;SDS011;20968;42.696;23.360;2023-06-22T04:47:56;12.23;;;9.23;;
34741;SDS011;20968;42.696;23.360;2023-06-22T04:50:21;22.70;;;8.55;;
34741;SDS011;20968;42.696;23.360;2023-06-22T04:52:48;16.65;;;9.30;;
34741;SDS011;20968;42.696;23.360;2023-06-22T04:55:14;13.07;;;8.25;;
34741;SDS011;20968;42.696;23.360;2023-06-22T04:57:43;12.50;;;7.68;;
34741;SDS011;20968;42.696;23.360;2023-06-22T05:00:20;13.38;;;7.97;;
34741;SDS011;20968;42.696;23.360;2023-06-22T05:03:02;13.75;;;7.97;;
34741;SDS011;20968;42.696;23.360;2023-06-22T05:05:28;16.00;;;7.88;;
34741;SDS011;20968;42.696;23.360;2023-06-22T05:07:56;14.23;;;9.52;;
34741;SDS011;20968;42.696;23.360;2023-06-22T05:10:24;13.35;;;8.00;;
34741;SDS011;20968;42.696;23.360;2023-06-22T05:12:51;14.73;;;8.93;;
34741;SDS011;20968;42.696;23.360;2023-06-22T05:15:16;14.80;;;8.32;;
34741;SDS011;20968;42.696;23.360;2023-06-22T05:17:44;13.32;;;8.43;;
34741;SDS011;20968;42.696;23.360;2023-06-22T05:20:10;17.23;;;9.13;;
34741;SDS011;20968;42.696;23.360;2023-06-22T05:22:37;13.68;;;8.65;;
34741;SDS011;20968;42.696;23.360;2023-06-22T05:25:05;15.73;;;9.32;;
34741;SDS011;20968;42.696;23.360;2023-06-22T05:27:33;13.48;;;8.77;;
34741;SDS011;20968;42.696;23.360;2023-06-22T05:30:01;11.70;;;7.03;;
34741;SDS011;20968;42.696;23.360;2023-06-22T05:32:27;13.88;;;7.30;;
34741;SDS011;20968;42.696;23.360;2023-06-22T05:34:52;12.77;;;8.10;;
34741;SDS011;20968;42.696;23.360;2023-06-22T05:37:17;12.18;;;6.95;;
34741;SDS011;20968;42.696;23.360;2023-06-22T05:39:43;16.95;;;8.00;;
34741;SDS011;20968;42.696;23.360;2023-06-22T05:42:09;13.60;;;7.20;;
34741;SDS011;20968;42.696;23.360;2023-06-22T05:44:34;9.40;;;6.80;;
34741;SDS011;20968;42.696;23.360;2023-06-22T05:47:00;9.85;;;6.68;;
34741;SDS011;20968;42.696;23.360;2023-06-22T05:49:25;9.20;;;6.25;;
34741;SDS011;20968;42.696;23.360;2023-06-22T05:51:57;8.48;;;6.28;;
34741;SDS011;20968;42.696;23.360;2023-06-22T05:54:23;8.68;;;6.90;;
34741;SDS011;20968;42.696;23.360;2023-06-22T05:56:48;9.98;;;6.70;;
34741;SDS011;20968;42.696;23.360;2023-06-22T05:59:13;8.10;;;7.13;;
34741;SDS011;20968;42.696;23.360;2023-06-22T06:01:39;13.80;;;7.10;;
34741;SDS011;20968;42.696;23.360;2023-06-22T06:04:05;11.10;;;6.53;;
34741;SDS011;20968;42.696;23.360;2023-06-22T06:06:33;9.98;;;6.53;;
34741;SDS011;20968;42.696;23.360;2023-06-22T06:09:00;9.85;;;6.72;;
34741;SDS011;20968;42.696;23.360;2023-06-22T06:11:25;9.32;;;6.32;;
34741;SDS011;20968;42.696;23.360;2023-06-22T06:13:51;8.73;;;6.43;;
34741;SDS011;20968;42.696;23.360;2023-06-22T06:16:16;9.05;;;6.32;;
34741;SDS011;20968;42.696;23.360;2023-06-22T06:18:42;9.55;;;6.97;;
34741;SDS011;20968;42.696;23.360;2023-06-22T06:21:07;11.77;;;7.38;;
34741;SDS011;20968;42.696;23.360;2023-06-22T06:23:33;10.68;;;6.55;;
34741;SDS011;20968;42.696;23.360;2023-06-22T06:25:58;10.27;;;7.55;;
34741;SDS011;20968;42.696;23.360;2023-06-22T06:28:24;13.40;;;7.07;;
34741;SDS011;20968;42.696;23.360;2023-06-22T06:30:50;11.60;;;7.55;;
34741;SDS011;20968;42.696;23.360;2023-06-22T06:33:16;11.23;;;7.57;;
34741;SDS011;20968;42.696;23.360;2023-06-22T06:35:42;9.38;;;6.80;;
34741;SDS011;20968;42.696;23.360;2023-06-22T06:38:07;10.43;;;7.68;;
34741;SDS011;20968;42.696;23.360;2023-06-22T06:40:33;10.57;;;7.40;;
34741;SDS011;20968;42.696;23.360;2023-06-22T06:42:58;8.02;;;6.50;;
34741;SDS011;20968;42.696;23.360;2023-06-22T06:45:24;13.63;;;8.07;;
34741;SDS011;20968;42.696;23.360;2023-06-22T06:47:52;10.10;;;7.25;;
34741;SDS011;20968;42.696;23.360;2023-06-22T06:50:20;9.15;;;7.22;;
34741;SDS011;20968;42.696;23.360;2023-06-22T06:52:46;13.85;;;7.68;;
34741;SDS011;20968;42.696;23.360;2023-06-22T06:55:11;13.43;;;7.30;;
34741;SDS011;20968;42.696;23.360;2023-06-22T06:57:38;10.00;;;7.05;;
34741;SDS011;20968;42.696;23.360;2023-06-22T07:00:08;12.50;;;7.45;;
34741;SDS011;20968;42.696;23.360;2023-06-22T07:02:41;11.15;;;7.60;;
34741;SDS011;20968;42.696;23.360;2023-06-22T07:05:07;16.23;;;7.75;;
34741;SDS011;20968;42.696;23.360;2023-06-22T07:07:33;10.93;;;6.63;;
34741;SDS011;20968;42.696;23.360;2023-06-22T07:09:59;11.65;;;6.90;;
34741;SDS011;20968;42.696;23.360;2023-06-22T07:12:25;9.88;;;7.15;;
34741;SDS011;20968;42.696;23.360;2023-06-22T07:14:52;15.05;;;8.00;;
34741;SDS011;20968;42.696;23.360;2023-06-22T07:17:17;13.20;;;7.32;;
34741;SDS011;20968;42.696;23.360;2023-06-22T07:19:43;11.93;;;7.45;;
34741;SDS011;20968;42.696;23.360;2023-06-22T07:22:09;14.68;;;7.85;;
34741;SDS011;20968;42.696;23.360;2023-06-22T07:24:34;10.70;;;7.00;;
34741;SDS011;20968;42.696;23.360;2023-06-22T07:26:59;13.93;;;7.97;;
34741;SDS011;20968;42.696;23.360;2023-06-22T07:29:25;7.97;;;6.45;;
34741;SDS011;20968;42.696;23.360;2023-06-22T07:31:52;10.70;;;6.50;;
34741;SDS011;20968;42.696;23.360;2023-06-22T07:34:17;18.00;;;8.23;;
34741;SDS011;20968;42.696;23.360;2023-06-22T07:36:43;10.23;;;7.50;;
34741;SDS011;20968;42.696;23.360;2023-06-22T07:39:09;14.23;;;7.65;;
34741;SDS011;20968;42.696;23.360;2023-06-22T07:41:35;8.50;;;6.88;;
34741;SDS011;20968;42.696;23.360;2023-06-22T07:44:01;14.48;;;6.97;;
34741;SDS011;20968;42.696;23.360;2023-06-22T07:46:28;10.07;;;6.65;;
34741;SDS011;20968;42.696;23.360;2023-06-22T07:48:55;7.78;;;6.82;;
34741;SDS011;20968;42.696;23.360;2023-06-22T07:51:21;9.38;;;7.50;;
34741;SDS011;20968;42.696;23.360;2023-06-22T07:53:46;10.82;;;7.88;;
34741;SDS011;20968;42.696;23.360;2023-06-22T07:56:11;10.60;;;7.10;;
34741;SDS011;20968;42.696;23.360;2023-06-22T07:58:37;11.27;;;7.65;;
34741;SDS011;20968;42.696;23.360;2023-06-22T08:01:03;13.55;;;7.90;;
34741;SDS011;20968;42.696;23.360;2023-06-22T08:03:28;12.25;;;6.55;;
34741;SDS011;20968;42.696;23.360;2023-06-22T08:05:54;12.07;;;7.90;;
34741;SDS011;20968;42.696;23.360;2023-06-22T08:08:20;16.83;;;8.25;;
34741;SDS011;20968;42.696;23.360;2023-06-22T08:10:45;14.85;;;8.93;;
34741;SDS011;20968;42.696;23.360;2023-06-22T08:13:10;11.85;;;8.50;;
34741;SDS011;20968;42.696;23.360;2023-06-22T08:15:36;16.90;;;10.52;;
34741;SDS011;20968;42.696;23.360;2023-06-22T08:18:02;12.70;;;8.30;;
34741;SDS011;20968;42.696;23.360;2023-06-22T08:20:27;15.23;;;8.60;;
34741;SDS011;20968;42.696;23.360;2023-06-22T08:22:53;11.88;;;9.10;;
34741;SDS011;20968;42.696;23.360;2023-06-22T08:25:20;12.50;;;8.23;;
34741;SDS011;20968;42.696;23.360;2023-06-22T08:27:46;12.68;;;8.32;;
34741;SDS011;20968;42.696;23.360;2023-06-22T08:30:13;15.93;;;8.23;;
34741;SDS011;20968;42.696;23.360;2023-06-22T08:32:39;14.35;;;8.23;;
34741;SDS011;20968;42.696;23.360;2023-06-22T08:35:05;13.20;;;7.80;;
34741;SDS011;20968;42.696;23.360;2023-06-22T08:37:33;13.77;;;7.72;;
34741;SDS011;20968;42.696;23.360;2023-06-22T08:40:00;12.85;;;7.63;;
34741;SDS011;20968;42.696;23.360;2023-06-22T08:42:29;12.45;;;8.80;;
34741;SDS011;20968;42.696;23.360;2023-06-22T08:44:54;13.50;;;8.23;;
34741;SDS011;20968;42.696;23.360;2023-06-22T08:47:20;14.77;;;8.13;;
34741;SDS011;20968;42.696;23.360;2023-06-22T08:49:46;22.80;;;9.75;;
34741;SDS011;20968;42.696;23.360;2023-06-22T08:52:12;15.23;;;9.48;;
34741;SDS011;20968;42.696;23.360;2023-06-22T08:54:37;11.82;;;7.55;;
34741;SDS011;20968;42.696;23.360;2023-06-22T08:57:03;16.85;;;9.82;;
34741;SDS011;20968;42.696;23.360;2023-06-22T08:59:29;14.25;;;9.40;;
34741;SDS011;20968;42.696;23.360;2023-06-22T09:04:29;10.57;;;8.07;;
34741;SDS011;20968;42.696;23.360;2023-06-22T09:06:55;12.10;;;7.78;;
34741;SDS011;20968;42.696;23.360;2023-06-22T09:09:21;14.70;;;7.25;;
34741;SDS011;20968;42.696;23.360;2023-06-22T09:11:46;13.13;;;7.55;;
34741;SDS011;20968;42.696;23.360;2023-06-22T09:14:12;9.50;;;7.95;;
34741;SDS011;20968;42.696;23.360;2023-06-22T09:16:38;8.82;;;5.63;;
34741;SDS011;20968;42.696;23.360;2023-06-22T09:19:03;10.25;;;7.18;;
34741;SDS011;20968;42.696;23.360;2023-06-22T09:21:29;9.07;;;6.55;;
34741;SDS011;20968;42.696;23.360;2023-06-22T09:23:54;14.65;;;7.25;;
34741;SDS011;20968;42.696;23.360;2023-06-22T09:26:20;8.05;;;6.53;;
34741;SDS011;20968;42.696;23.360;2023-06-22T09:28:47;9.73;;;6.85;;
34741;SDS011;20968;42.696;23.360;2023-06-22T09:31:13;8.60;;;6.20;;
34741;SDS011;20968;42.696;23.360;2023-06-22T09:33:39;15.07;;;8.60;;
34741;SDS011;20968;42.696;23.360;2023-06-22T09:36:05;13.27;;;8.07;;
34741;SDS011;20968;42.696;23.360;2023-06-22T09:38:36;11.98;;;7.25;;
34741;SDS011;20968;42.696;23.360;2023-06-22T09:41:01;15.50;;;6.18;;
34741;SDS011;20968;42.696;23.360;2023-06-22T09:43:27;10.73;;;6.40;;
34741;SDS011;20968;42.696;23.360;2023-06-22T09:45:53;13.52;;;7.10;;
34741;SDS011;20968;42.696;23.360;2023-06-22T09:48:18;12.40;;;8.07;;
34741;SDS011;20968;42.696;23.360;2023-06-22T09:50:44;8.52;;;6.82;;
34741;SDS011;20968;42.696;23.360;2023-06-22T09:53:09;7.95;;;6.25;;
34741;SDS011;20968;42.696;23.360;2023-06-22T09:55:35;8.52;;;5.55;;
34741;SDS011;20968;42.696;23.360;2023-06-22T09:58:00;8.43;;;5.68;;
34741;SDS011;20968;42.696;23.360;2023-06-22T10:00:26;7.00;;;5.85;;
34741;SDS011;20968;42.696;23.360;2023-06-22T10:02:54;6.60;;;5.05;;
34741;SDS011;20968;42.696;23.360;2023-06-22T10:05:21;11.35;;;5.05;;
34741;SDS011;20968;42.696;23.360;2023-06-22T10:07:46;6.97;;;5.93;;
34741;SDS011;20968;42.696;23.360;2023-06-22T10:10:12;6.90;;;5.72;;
34741;SDS011;20968;42.696;23.360;2023-06-22T10:12:41;6.53;;;5.82;;
34741;SDS011;20968;42.696;23.360;2023-06-22T10:15:09;6.45;;;5.68;;
34741;SDS011;20968;42.696;23.360;2023-06-22T10:17:35;6.82;;;5.68;;
34741;SDS011;20968;42.696;23.360;2023-06-22T10:20:00;7.13;;;5.75;;
34741;SDS011;20968;42.696;23.360;2023-06-22T10:22:31;6.75;;;5.88;;
34741;SDS011;20968;42.696;23.360;2023-06-22T10:24:56;6.03;;;5.00;;
34741;SDS011;20968;42.696;23.360;2023-06-22T10:27:21;5.95;;;5.00;;
34741;SDS011;20968;42.696;23.360;2023-06-22T10:29:47;5.15;;;4.65;;
34741;SDS011;20968;42.696;23.360;2023-06-22T10:32:12;8.75;;;4.65;;
34741;SDS011;20968;42.696;23.360;2023-06-22T10:34:38;6.57;;;5.22;;
34741;SDS011;20968;42.696;23.360;2023-06-22T10:37:03;5.10;;;4.60;;
34741;SDS011;20968;42.696;23.360;2023-06-22T10:39:29;7.28;;;5.20;;
34741;SDS011;20968;42.696;23.360;2023-06-22T10:41:54;6.95;;;5.70;;
34741;SDS011;20968;42.696;23.360;2023-06-22T10:44:21;7.28;;;5.53;;
34741;SDS011;20968;42.696;23.360;2023-06-22T10:46:46;5.47;;;4.75;;
34741;SDS011;20968;42.696;23.360;2023-06-22T10:49:12;5.82;;;5.30;;
34741;SDS011;20968;42.696;23.360;2023-06-22T10:51:37;5.90;;;4.82;;
34741;SDS011;20968;42.696;23.360;2023-06-22T10:54:02;5.35;;;4.80;;
34741;SDS011;20968;42.696;23.360;2023-06-22T10:56:29;5.43;;;4.90;;
34741;SDS011;20968;42.696;23.360;2023-06-22T10:58:58;5.25;;;4.75;;
34741;SDS011;20968;42.696;23.360;2023-06-22T11:01:24;7.20;;;5.18;;
34741;SDS011;20968;42.696;23.360;2023-06-22T11:03:49;5.70;;;5.03;;
34741;SDS011;20968;42.696;23.360;2023-06-22T11:06:15;6.13;;;5.22;;
34741;SDS011;20968;42.696;23.360;2023-06-22T11:08:43;7.63;;;6.28;;
34741;SDS011;20968;42.696;23.360;2023-06-22T11:11:09;7.07;;;5.85;;
34741;SDS011;20968;42.696;23.360;2023-06-22T11:13:34;6.82;;;5.32;;
34741;SDS011;20968;42.696;23.360;2023-06-22T11:16:00;10.73;;;5.65;;
34741;SDS011;20968;42.696;23.360;2023-06-22T11:18:25;7.15;;;5.88;;
34741;SDS011;20968;42.696;23.360;2023-06-22T11:20:51;10.18;;;6.43;;
34741;SDS011;20968;42.696;23.360;2023-06-22T11:23:16;9.23;;;5.68;;
34741;SDS011;20968;42.696;23.360;2023-06-22T11:25:42;6.13;;;5.53;;
34741;SDS011;20968;42.696;23.360;2023-06-22T11:28:07;7.88;;;4.50;;
34741;SDS011;20968;42.696;23.360;2023-06-22T11:30:33;9.20;;;4.68;;
34741;SDS011;20968;42.696;23.360;2023-06-22T11:32:59;6.20;;;5.07;;
34741;SDS011;20968;42.696;23.360;2023-06-22T11:35:25;5.80;;;4.88;;
34741;SDS011;20968;42.696;23.360;2023-06-22T11:37:51;6.32;;;5.03;;
34741;SDS011;20968;42.696;23.360;2023-06-22T11:40:16;5.47;;;4.70;;
34741;SDS011;20968;42.696;23.360;2023-06-22T11:42:42;6.75;;;5.07;;
34741;SDS011;20968;42.696;23.360;2023-06-22T11:45:08;9.00;;;5.43;;
34741;SDS011;20968;42.696;23.360;2023-06-22T11:47:34;5.47;;;4.78;;
34741;SDS011;20968;42.696;23.360;2023-06-22T11:50:01;5.90;;;4.90;;
34741;SDS011;20968;42.696;23.360;2023-06-22T11:52:27;5.85;;;5.25;;
34741;SDS011;20968;42.696;23.360;2023-06-22T11:54:52;6.15;;;5.38;;
34741;SDS011;20968;42.696;23.360;2023-06-22T11:57:18;7.30;;;5.93;;
34741;SDS011;20968;42.696;23.360;2023-06-22T11:59:43;6.95;;;4.72;;
34741;SDS011;20968;42.696;23.360;2023-06-22T12:02:08;9.05;;;5.75;;
34741;SDS011;20968;42.696;23.360;2023-06-22T12:04:34;21.90;;;5.68;;
34741;SDS011;20968;42.696;23.360;2023-06-22T12:07:00;5.95;;;5.35;;
34741;SDS011;20968;42.696;23.360;2023-06-22T12:09:25;10.85;;;5.22;;
34741;SDS011;20968;42.696;23.360;2023-06-22T12:11:51;6.80;;;5.18;;
34741;SDS011;20968;42.696;23.360;2023-06-22T12:14:16;11.88;;;5.30;;
34741;SDS011;20968;42.696;23.360;2023-06-22T12:16:41;5.80;;;5.25;;
34741;SDS011;20968;42.696;23.360;2023-06-22T12:19:09;8.45;;;5.70;;
34741;SDS011;20968;42.696;23.360;2023-06-22T12:21:34;6.32;;;4.85;;
34741;SDS011;20968;42.696;23.360;2023-06-22T12:24:00;6.57;;;4.97;;
34741;SDS011;20968;42.696;23.360;2023-06-22T12:26:25;5.65;;;5.13;;
34741;SDS011;20968;42.696;23.360;2023-06-22T12:28:50;5.93;;;4.72;;
34741;SDS011;20968;42.696;23.360;2023-06-22T12:31:16;16.58;;;6.35;;
34741;SDS011;20968;42.696;23.360;2023-06-22T12:33:42;11.25;;;6.35;;
34741;SDS011;20968;42.696;23.360;2023-06-22T12:36:07;12.13;;;6.00;;
34741;SDS011;20968;42.696;23.360;2023-06-22T12:38:33;9.73;;;5.95;;
34741;SDS011;20968;42.696;23.360;2023-06-22T12:40:58;11.77;;;7.05;;
34741;SDS011;20968;42.696;23.360;2023-06-22T12:43:24;15.65;;;7.25;;
34741;SDS011;20968;42.696;23.360;2023-06-22T12:45:49;9.82;;;6.38;;
34741;SDS011;20968;42.696;23.360;2023-06-22T12:48:14;16.30;;;6.50;;
34741;SDS011;20968;42.696;23.360;2023-06-22T12:50:40;9.23;;;6.10;;
34741;SDS011;20968;42.696;23.360;2023-06-22T12:53:05;11.18;;;6.68;;
34741;SDS011;20968;42.696;23.360;2023-06-22T12:55:31;10.80;;;5.97;;
34741;SDS011;20968;42.696;23.360;2023-06-22T12:57:57;16.00;;;5.93;;
34741;SDS011;20968;42.696;23.360;2023-06-22T13:00:22;13.13;;;5.97;;
34741;SDS011;20968;42.696;23.360;2023-06-22T13:02:48;11.20;;;6.22;;
34741;SDS011;20968;42.696;23.360;2023-06-22T13:05:13;10.45;;;7.30;;
34741;SDS011;20968;42.696;23.360;2023-06-22T13:07:39;7.15;;;5.78;;
34741;SDS011;20968;42.696;23.360;2023-06-22T13:10:04;10.63;;;5.60;;
34741;SDS011;20968;42.696;23.360;2023-06-22T13:12:30;7.03;;;5.65;;
34741;SDS011;20968;42.696;23.360;2023-06-22T13:14:55;7.55;;;5.57;;
34741;SDS011;20968;42.696;23.360;2023-06-22T13:17:21;9.05;;;6.03;;
34741;SDS011;20968;42.696;23.360;2023-06-22T13:19:46;7.70;;;6.13;;
34741;SDS011;20968;42.696;23.360;2023-06-22T13:25:04;7.63;;;5.72;;
34741;SDS011;20968;42.696;23.360;2023-06-22T13:27:35;10.25;;;5.93;;
34741;SDS011;20968;42.696;23.360;2023-06-22T13:30:00;12.13;;;6.40;;
34741;SDS011;20968;42.696;23.360;2023-06-22T13:32:28;15.40;;;8.52;;
34741;SDS011;20968;42.696;23.360;2023-06-22T13:34:53;8.52;;;6.35;;
34741;SDS011;20968;42.696;23.360;2023-06-22T13:37:19;10.82;;;7.45;;
34741;SDS011;20968;42.696;23.360;2023-06-22T13:39:44;12.35;;;7.35;;
34741;SDS011;20968;42.696;23.360;2023-06-22T13:42:10;11.77;;;7.50;;
34741;SDS011;20968;42.696;23.360;2023-06-22T13:44:35;10.48;;;7.07;;
34741;SDS011;20968;42.696;23.360;2023-06-22T13:47:01;8.68;;;6.25;;
34741;SDS011;20968;42.696;23.360;2023-06-22T13:49:26;7.60;;;5.95;;
34741;SDS011;20968;42.696;23.360;2023-06-22T13:51:52;12.32;;;6.68;;
34741;SDS011;20968;42.696;23.360;2023-06-22T13:54:17;8.60;;;6.45;;
34741;SDS011;20968;42.696;23.360;2023-06-22T13:56:43;11.13;;;6.95;;
34741;SDS011;20968;42.696;23.360;2023-06-22T13:59:08;9.38;;;6.28;;
34741;SDS011;20968;42.696;23.360;2023-06-22T14:01:36;8.70;;;5.90;;
34741;SDS011;20968;42.696;23.360;2023-06-22T14:04:03;11.98;;;6.63;;
34741;SDS011;20968;42.696;23.360;2023-06-22T14:06:29;13.35;;;7.60;;
34741;SDS011;20968;42.696;23.360;2023-06-22T14:08:54;9.13;;;6.03;;
34741;SDS011;20968;42.696;23.360;2023-06-22T14:11:21;13.13;;;6.90;;
34741;SDS011;20968;42.696;23.360;2023-06-22T14:13:46;13.10;;;6.90;;
34741;SDS011;20968;42.696;23.360;2023-06-22T14:16:12;9.25;;;6.80;;
34741;SDS011;20968;42.696;23.360;2023-06-22T14:18:37;12.07;;;6.82;;
34741;SDS011;20968;42.696;23.360;2023-06-22T14:21:02;14.70;;;6.07;;
34741;SDS011;20968;42.696;23.360;2023-06-22T14:23:28;12.45;;;6.50;;
34741;SDS011;20968;42.696;23.360;2023-06-22T14:25:53;10.18;;;6.28;;
34741;SDS011;20968;42.696;23.360;2023-06-22T14:28:19;10.82;;;6.45;;
34741;SDS011;20968;42.696;23.360;2023-06-22T14:30:44;9.63;;;7.28;;
34741;SDS011;20968;42.696;23.360;2023-06-22T14:33:09;11.20;;;6.93;;
34741;SDS011;20968;42.696;23.360;2023-06-22T14:35:35;9.30;;;6.43;;
34741;SDS011;20968;42.696;23.360;2023-06-22T14:38:01;9.50;;;6.80;;
34741;SDS011;20968;42.696;23.360;2023-06-22T14:40:26;12.88;;;7.63;;
34741;SDS011;20968;42.696;23.360;2023-06-22T14:42:51;10.45;;;7.55;;
34741;SDS011;20968;42.696;23.360;2023-06-22T14:45:17;10.15;;;7.38;;
34741;SDS011;20968;42.696;23.360;2023-06-22T14:47:42;10.35;;;7.22;;